Time;durP1;ratioP1;P1;durP2;ratioP2;P2;SDS_P1;SDS_P2;PMS_P1;PMS_P2;Temp;Humidity;BMP_temperature;BMP_pressure;BME280_temperature;BME280_humidity;BME280_pressure;Samples;Min_cycle;Max_cycle;Signal;HPM_P1;HPM_P2
2022/01/24 05:25:09;;;;;;;;;;;1.10;99.90;;;;;;4867225;29;20114;-79
2022/01/24 05:27:36;;;;;;;12.23;6.68;;;1.10;99.90;;;;;;4881334;29;19939;-75
2022/01/24 05:30:06;;;;;;;11.10;6.07;;;1.00;99.90;;;;;;4875451;29;20120;-75
2022/01/24 05:32:33;;;;;;;10.38;6.07;;;0.90;99.90;;;;;;4879319;29;20471;-75
2022/01/24 05:35:00;;;;;;;11.68;5.95;;;0.90;99.90;;;;;;4881832;29;20081;-76
2022/01/24 05:37:27;;;;;;;11.27;6.43;;;0.80;99.90;;;;;;4881354;29;20080;-74
2022/01/24 05:39:54;;;;;;;12.50;7.03;;;0.80;99.90;;;;;;4882045;29;20080;-74
2022/01/24 05:42:22;;;;;;;13.68;7.30;;;0.80;99.90;;;;;;4882728;29;20053;-75
2022/01/24 05:44:49;;;;;;;12.93;7.25;;;0.70;99.90;;;;;;4883568;29;20060;-75
2022/01/24 05:47:18;;;;;;;13.48;6.97;;;0.80;99.90;;;;;;4882738;29;20049;-74
2022/01/24 05:49:46;;;;;;;12.35;7.15;;;0.80;99.90;;;;;;4881607;29;20154;-75
2022/01/24 05:52:14;;;;;;;15.05;7.07;;;0.80;99.90;;;;;;4881501;29;20140;-74
2022/01/24 05:54:42;;;;;;;13.13;7.00;;;0.80;99.90;;;;;;4881022;29;20091;-78
2022/01/24 05:57:10;;;;;;;15.23;7.65;;;0.80;99.90;;;;;;4880936;29;20128;-75
2022/01/24 05:59:38;;;;;;;13.73;7.40;;;0.80;99.90;;;;;;4881512;29;20083;-75
2022/01/24 06:02:06;;;;;;;14.38;7.85;;;0.90;99.90;;;;;;4867177;29;20084;-76
2022/01/24 06:04:35;;;;;;;15.90;8.38;;;0.90;99.90;;;;;;4865358;29;20113;-75
2022/01/24 06:07:03;;;;;;;13.70;7.63;;;0.90;99.90;;;;;;4862735;29;20060;-75
2022/01/24 06:09:30;;;;;;;12.27;7.20;;;0.90;99.90;;;;;;4862696;29;20140;-75
2022/01/24 06:11:57;;;;;;;12.88;7.40;;;0.90;99.90;;;;;;4868450;29;20135;-75
2022/01/24 06:14:24;;;;;;;14.15;7.45;;;1.00;99.90;;;;;;4880907;29;20112;-74
2022/01/24 06:16:51;;;;;;;15.48;7.72;;;1.00;99.90;;;;;;4881256;29;20073;-76
2022/01/24 06:19:18;;;;;;;13.45;7.40;;;1.00;99.90;;;;;;4880800;29;20055;-74
2022/01/24 06:21:47;;;;;;;14.88;7.57;;;1.00;99.90;;;;;;4881285;29;20151;-74
2022/01/24 06:24:14;;;;;;;13.88;7.82;;;1.00;99.90;;;;;;4881704;29;20132;-74
2022/01/24 06:26:43;;;;;;;13.90;7.55;;;1.00;99.90;;;;;;4881573;29;20453;-74
2022/01/24 06:29:11;;;;;;;14.45;7.55;;;0.90;99.90;;;;;;4881907;29;20487;-75
2022/01/24 06:31:38;;;;;;;16.00;8.23;;;0.90;99.90;;;;;;4881885;29;20570;-74
2022/01/24 06:34:06;;;;;;;15.15;7.82;;;0.90;99.90;;;;;;4881390;29;20140;-75
2022/01/24 06:36:34;;;;;;;17.17;8.57;;;0.90;99.90;;;;;;4888553;29;20131;-75
2022/01/24 06:39:05;;;;;;;14.07;7.90;;;0.90;99.90;;;;;;4899556;29;20589;-75
2022/01/24 06:41:35;;;;;;;14.30;8.07;;;0.90;99.90;;;;;;4882050;29;20044;-75
2022/01/24 06:44:03;;;;;;;15.05;8.07;;;1.00;99.90;;;;;;4881152;29;20388;-75
2022/01/24 06:46:31;;;;;;;14.93;7.57;;;1.00;99.90;;;;;;4881201;29;20101;-75
2022/01/24 06:48:58;;;;;;;14.18;8.07;;;1.00;99.90;;;;;;4880478;29;20140;-74
2022/01/24 06:51:25;;;;;;;13.90;7.75;;;1.00;99.90;;;;;;4881018;29;20141;-75
2022/01/24 06:53:52;;;;;;;14.63;8.25;;;1.00;99.90;;;;;;4881272;29;20053;-75
2022/01/24 06:56:21;;;;;;;13.27;7.75;;;1.10;99.90;;;;;;4880593;29;20135;-75
2022/01/24 06:58:48;;;;;;;14.43;7.57;;;1.10;99.90;;;;;;4880304;29;20128;-75
2022/01/24 07:01:15;;;;;;;15.75;8.40;;;1.20;99.90;;;;;;4879952;29;20049;-76
2022/01/24 07:03:43;;;;;;;14.02;7.70;;;1.20;99.90;;;;;;4880299;29;20498;-76
2022/01/24 07:06:10;;;;;;;15.18;8.02;;;1.20;99.90;;;;;;4880432;29;20113;-75
2022/01/24 07:08:37;;;;;;;14.35;7.90;;;1.20;99.90;;;;;;4880238;29;20486;-77
2022/01/24 07:11:04;;;;;;;15.05;8.10;;;1.20;99.90;;;;;;4880442;29;20124;-75
2022/01/24 07:13:32;;;;;;;15.07;7.97;;;1.30;99.90;;;;;;4879912;29;20114;-76
2022/01/24 07:16:03;;;;;;;15.80;8.85;;;1.30;99.90;;;;;;4898445;29;20144;-75
2022/01/24 07:21:15;;;;;;;15.35;8.88;;;1.40;99.90;;;;;;4861467;29;20153;-75
2022/01/24 07:23:42;;;;;;;15.55;8.25;;;1.40;99.90;;;;;;4862401;29;20105;-77
2022/01/24 07:26:09;;;;;;;14.63;8.35;;;1.40;99.90;;;;;;4861563;29;20122;-77
2022/01/24 07:28:37;;;;;;;16.10;8.82;;;1.40;99.90;;;;;;4862449;29;20566;-80
2022/01/24 07:31:04;;;;;;;17.48;8.85;;;1.40;99.90;;;;;;4865897;29;20133;-76
2022/01/24 07:33:32;;;;;;;16.13;8.57;;;1.40;99.90;;;;;;4865853;29;20105;-75
2022/01/24 07:35:59;;;;;;;14.02;8.23;;;1.40;99.90;;;;;;4866110;29;20165;-75
2022/01/24 07:38:26;;;;;;;14.98;8.23;;;1.40;99.90;;;;;;4866323;29;20136;-76
2022/01/24 07:40:55;;;;;;;15.43;9.20;;;1.40;99.90;;;;;;4865554;29;20056;-75
2022/01/24 07:43:22;;;;;;;13.95;8.18;;;1.50;99.90;;;;;;4865351;29;20056;-75
2022/01/24 07:45:51;;;;;;;13.73;7.95;;;1.40;99.90;;;;;;4871093;29;20128;-75
2022/01/24 07:48:21;;;;;;;14.50;8.02;;;1.50;99.90;;;;;;4882424;29;20495;-76
2022/01/24 07:50:51;;;;;;;14.15;8.15;;;1.50;99.90;;;;;;4881899;29;20136;-76
2022/01/24 07:53:19;;;;;;;14.93;8.55;;;1.50;99.90;;;;;;4882382;29;20092;-75
2022/01/24 07:55:47;;;;;;;15.57;8.98;;;1.60;99.90;;;;;;4883855;29;20141;-75
2022/01/24 07:58:14;;;;;;;15.38;8.50;;;1.60;99.90;;;;;;4882743;29;20136;-76
2022/01/24 08:00:41;;;;;;;15.02;8.30;;;1.60;99.90;;;;;;4883176;29;20140;-75
2022/01/24 08:03:10;;;;;;;14.68;7.97;;;1.60;99.90;;;;;;4883020;29;20136;-75
2022/01/24 08:05:37;;;;;;;13.80;8.00;;;1.70;99.90;;;;;;4882242;29;20053;-75
2022/01/24 08:08:06;;;;;;;13.82;7.70;;;1.70;99.90;;;;;;4882741;29;20053;-74
2022/01/24 08:10:33;;;;;;;15.07;8.40;;;1.70;99.90;;;;;;4883107;29;20136;-74
2022/01/24 08:13:01;;;;;;;15.00;8.68;;;1.80;99.90;;;;;;4882494;29;20053;-75
2022/01/24 08:15:28;;;;;;;17.05;8.80;;;1.80;99.90;;;;;;4882318;29;20144;-74
2022/01/24 08:17:55;;;;;;;15.55;8.50;;;1.80;99.90;;;;;;4882826;29;20132;-75
2022/01/24 08:20:25;;;;;;;13.52;7.78;;;1.80;99.90;;;;;;4883180;29;20136;-75
2022/01/24 08:22:53;;;;;;;13.82;8.45;;;1.80;99.90;;;;;;4883310;29;20136;-75
2022/01/24 08:25:20;;;;;;;16.05;8.73;;;1.70;99.90;;;;;;4883648;29;20143;-77
2022/01/24 08:27:48;;;;;;;15.07;8.57;;;1.80;99.90;;;;;;4867038;29;20408;-75
2022/01/24 08:30:19;;;;;;;16.98;9.18;;;1.70;99.90;;;;;;4866378;29;20381;-75
2022/01/24 08:32:47;;;;;;;16.25;9.20;;;1.70;99.90;;;;;;4864433;29;20057;-75
2022/01/24 08:35:15;;;;;;;15.65;9.27;;;1.80;99.90;;;;;;4867823;29;20124;-75
2022/01/24 08:37:44;;;;;;;17.40;9.25;;;1.80;99.90;;;;;;4864208;29;20140;-75
2022/01/24 08:40:20;;;;;;;17.00;9.68;;;1.80;99.90;;;;;;4864531;29;20136;-75
2022/01/24 08:42:56;;;;;;;17.52;9.80;;;1.80;99.90;;;;;;4865430;29;20133;-74
2022/01/24 08:48:09;;;;;;;13.98;8.32;;;1.80;99.90;;;;;;4863095;29;20056;-74
2022/01/24 08:50:37;;;;;;;15.18;9.15;;;1.90;99.90;;;;;;4863598;29;20095;-74
2022/01/24 08:53:06;;;;;;;18.58;9.75;;;1.90;99.90;;;;;;4863342;29;20140;-75
2022/01/24 08:55:35;;;;;;;15.82;8.88;;;2.00;99.90;;;;;;4877509;29;20049;-75
2022/01/24 08:58:06;;;;;;;16.75;9.77;;;2.00;99.90;;;;;;4882520;29;20132;-75
2022/01/24 09:00:34;;;;;;;15.60;9.52;;;2.00;99.90;;;;;;4882555;29;20059;-74
2022/01/24 09:03:01;;;;;;;15.63;9.20;;;2.10;99.90;;;;;;4881481;29;20143;-75
2022/01/24 09:05:34;;;;;;;18.05;9.73;;;2.10;99.90;;;;;;4882335;29;20128;-75
2022/01/24 09:08:02;;;;;;;14.30;8.45;;;2.20;99.90;;;;;;4881311;29;20495;-76
2022/01/24 09:10:31;;;;;;;16.73;10.30;;;2.20;99.90;;;;;;4882091;29;20087;-78
2022/01/24 09:12:58;;;;;;;16.98;9.75;;;2.30;99.90;;;;;;4882920;29;20140;-75
2022/01/24 09:15:26;;;;;;;14.57;8.43;;;2.40;99.90;;;;;;4882007;29;20139;-75
2022/01/24 09:17:53;;;;;;;15.02;9.10;;;2.40;99.90;;;;;;4882140;29;20140;-74
2022/01/24 09:20:20;;;;;;;16.15;9.27;;;2.50;99.90;;;;;;4881246;29;20135;-75
2022/01/24 09:22:49;;;;;;;15.73;8.95;;;2.60;99.90;;;;;;4880140;29;20076;-75
2022/01/24 09:25:18;;;;;;;14.48;9.48;;;2.60;99.90;;;;;;4880250;29;20045;-75
2022/01/24 09:27:47;;;;;;;15.63;9.88;;;2.60;99.90;;;;;;4879973;29;20418;-75
2022/01/24 09:30:18;;;;;;;16.08;9.98;;;2.70;99.90;;;;;;4880176;29;20430;-75
2022/01/24 09:32:46;;;;;;;14.63;9.18;;;2.80;99.90;;;;;;4880059;29;20148;-74
2022/01/24 09:35:14;;;;;;;16.42;9.68;;;2.80;99.90;;;;;;4880035;29;20109;-75
2022/01/24 09:37:42;;;;;;;16.65;9.68;;;2.90;99.90;;;;;;4879933;29;20364;-75
2022/01/24 09:40:13;;;;;;;16.20;9.52;;;3.00;99.90;;;;;;4879921;29;20059;-74
2022/01/24 09:42:41;;;;;;;15.68;9.85;;;3.00;99.90;;;;;;4879873;29;20060;-75
2022/01/24 09:45:12;;;;;;;17.08;10.48;;;3.10;99.90;;;;;;4879893;29;20088;-75
2022/01/24 09:47:39;;;;;;;15.27;9.85;;;3.20;99.90;;;;;;4864875;29;20053;-75
2022/01/24 09:50:10;;;;;;;14.75;9.05;;;3.20;99.90;;;;;;4879894;29;20045;-76
2022/01/24 09:52:41;;;;;;;17.75;9.52;;;3.30;99.90;;;;;;4879999;29;20071;-76
2022/01/24 09:55:10;;;;;;;17.50;10.30;;;3.30;99.90;;;;;;4879862;29;20053;-74
2022/01/24 09:57:38;;;;;;;18.65;11.23;;;3.30;99.90;;;;;;4879148;29;20140;-75
2022/01/24 10:00:09;;;;;;;20.20;11.32;;;3.40;99.90;;;;;;4879511;29;20133;-78
2022/01/24 10:02:37;;;;;;;18.90;10.55;;;3.40;99.90;;;;;;4879818;29;20151;-74
2022/01/24 10:05:17;;;;;;;18.33;11.07;;;3.50;99.90;;;;;;4879403;29;20049;-75
2022/01/24 10:07:53;;;;;;;17.45;10.38;;;3.50;99.90;;;;;;4879312;29;20473;-74
2022/01/24 10:10:33;;;;;;;17.70;10.50;;;3.60;99.90;;;;;;4879357;29;20112;-76
2022/01/24 10:16:25;;;;;;;17.45;10.70;;;3.70;99.90;;;;;;4879330;29;20064;-75
2022/01/24 10:19:11;;;;;;;16.75;10.35;;;3.80;99.90;;;;;;4879190;29;20064;-74
2022/01/24 10:21:41;;;;;;;15.30;10.10;;;3.80;99.90;;;;;;4879360;29;20139;-74
2022/01/24 10:24:09;;;;;;;15.95;9.98;;;3.90;99.90;;;;;;4879810;29;20056;-74
2022/01/24 10:26:37;;;;;;;14.68;9.00;;;3.90;99.90;;;;;;4879707;29;20634;-75
2022/01/24 10:29:12;;;;;;;15.65;9.82;;;4.00;99.90;;;;;;4879261;29;20136;-74
2022/01/24 10:31:47;;;;;;;15.85;9.25;;;4.00;99.90;;;;;;4879474;29;20053;-78
2022/01/24 10:34:23;;;;;;;14.93;9.55;;;4.10;99.90;;;;;;4878267;29;20484;-76
2022/01/24 10:36:52;;;;;;;16.27;9.90;;;4.20;99.90;;;;;;4879188;29;20087;-75
2022/01/24 10:39:29;;;;;;;18.35;10.57;;;4.20;99.90;;;;;;4879151;29;20081;-75
2022/01/24 10:42:41;;;;;;;16.23;9.68;;;4.30;99.90;;;;;;4878965;29;20049;-77
2022/01/24 10:45:15;;;;;;;16.02;10.18;;;4.30;99.90;;;;;;4879368;29;20049;-75
2022/01/24 10:47:46;;;;;;;12.63;8.48;;;4.40;99.90;;;;;;4879343;29;20045;-75
2022/01/24 10:50:24;;;;;;;13.23;8.70;;;4.40;99.90;;;;;;4879205;29;20098;-75
2022/01/24 10:52:53;;;;;;;15.07;9.50;;;4.50;99.90;;;;;;4878927;29;20072;-75
2022/01/24 10:55:24;;;;;;;14.13;9.10;;;4.50;99.90;;;;;;4865254;29;20046;-75
2022/01/24 10:57:53;;;;;;;13.60;8.77;;;4.60;99.90;;;;;;4860306;29;20058;-76
2022/01/24 11:00:24;;;;;;;13.73;8.13;;;4.60;99.90;;;;;;4860501;29;20144;-75
2022/01/24 11:02:55;;;;;;;13.82;8.43;;;4.70;99.90;;;;;;4860408;29;20085;-75
2022/01/24 11:05:27;;;;;;;11.90;7.90;;;4.70;99.90;;;;;;4860321;29;20050;-75
2022/01/24 11:07:57;;;;;;;12.52;7.88;;;4.80;99.90;;;;;;4868790;29;20148;-76
2022/01/24 11:10:27;;;;;;;11.27;7.38;;;4.90;99.90;;;;;;4883609;29;20053;-76
2022/01/24 11:12:54;;;;;;;12.10;6.82;;;4.90;99.90;;;;;;4881735;29;20055;-74
2022/01/24 11:15:22;;;;;;;12.60;6.95;;;5.00;99.90;;;;;;4882176;29;20061;-76
2022/01/24 11:17:50;;;;;;;11.48;6.40;;;5.00;99.90;;;;;;4881919;29;20045;-76
2022/01/24 11:20:20;;;;;;;12.98;6.53;;;5.10;99.90;;;;;;4882156;29;20136;-75
2022/01/24 11:22:58;;;;;;;10.30;5.95;;;5.20;99.90;;;;;;4882663;29;20056;-78
2022/01/24 11:25:27;;;;;;;10.98;6.05;;;5.20;99.90;;;;;;4882365;29;20048;-76
2022/01/24 11:27:54;;;;;;;9.68;6.07;;;5.30;99.90;;;;;;4882300;29;20136;-77
2022/01/24 11:30:25;;;;;;;9.15;5.35;;;5.40;99.90;;;;;;4882143;29;20586;-77
2022/01/24 11:32:55;;;;;;;8.35;5.30;;;5.40;99.90;;;;;;4881089;29;20135;-78
2022/01/24 11:35:40;;;;;;;9.23;5.50;;;5.50;99.90;;;;;;4881007;29;20063;-77
2022/01/24 11:38:32;;;;;;;9.23;4.72;;;5.60;99.90;;;;;;4881497;29;20053;-79
2022/01/24 11:41:05;;;;;;;8.07;4.68;;;5.60;99.90;;;;;;4885887;29;20052;-77
2022/01/24 11:43:36;;;;;;;8.20;4.65;;;5.70;99.90;;;;;;4900543;29;20151;-76
2022/01/24 11:46:07;;;;;;;7.30;4.45;;;5.70;99.90;;;;;;4871567;29;20059;-75
2022/01/24 11:48:37;;;;;;;7.88;3.92;;;5.80;99.90;;;;;;4862605;29;20114;-78
2022/01/24 11:51:09;;;;;;;5.90;3.67;;;5.90;99.90;;;;;;4875066;29;20127;-77
2022/01/24 11:53:44;;;;;;;4.93;3.00;;;6.00;99.80;;;;;;4900104;29;20064;-74
2022/01/24 11:56:23;;;;;;;5.97;3.40;;;6.10;99.50;;;;;;4893622;29;20129;-75
2022/01/24 11:58:50;;;;;;;6.07;3.80;;;6.20;99.10;;;;;;4868483;29;20131;-74
2022/01/24 12:01:37;;;;;;;5.90;3.67;;;6.30;98.80;;;;;;4880717;29;20132;-76
2022/01/24 12:04:05;;;;;;;5.55;3.47;;;6.40;98.80;;;;;;4880787;29;20105;-76
2022/01/24 12:07:17;;;;;;;6.38;3.67;;;6.40;98.30;;;;;;4862653;29;20137;-76
2022/01/24 12:09:47;;;;;;;7.32;3.35;;;6.50;98.20;;;;;;4862530;29;20053;-76
2022/01/24 12:12:47;;;;;;;5.80;3.28;;;6.70;98.20;;;;;;4862977;29;20060;-78
2022/01/24 12:16:02;;;;;;;6.00;3.10;;;6.80;98.10;;;;;;4862584;29;20065;-78
2022/01/24 12:18:54;;;;;;;6.10;3.45;;;6.90;97.90;;;;;;4862833;29;20046;-75
2022/01/24 12:21:27;;;;;;;5.05;3.00;;;7.00;97.50;;;;;;4870870;29;20057;-76
2022/01/24 12:23:57;;;;;;;6.68;2.88;;;7.10;97.40;;;;;;4881535;29;20052;-78
2022/01/24 12:26:30;;;;;;;5.20;3.08;;;7.30;97.00;;;;;;4880947;29;20132;-75
2022/01/24 12:29:02;;;;;;;5.78;3.10;;;7.40;96.70;;;;;;4875996;29;20395;-79
2022/01/24 12:31:34;;;;;;;4.93;2.58;;;7.60;95.80;;;;;;4862622;29;20396;-82
2022/01/24 12:34:27;;;;;;;5.25;2.72;;;7.70;95.70;;;;;;4863156;29;20440;-84
2022/01/24 12:37:08;;;;;;;6.53;3.20;;;7.90;95.80;;;;;;4863481;29;20091;-86
2022/01/24 12:39:58;;;;;;;5.40;2.50;;;8.10;95.70;;;;;;4880981;29;20713;-86
2022/01/24 12:42:40;;;;;;;6.00;2.42;;;8.30;95.70;;;;;;4883405;29;20084;-84
2022/01/24 12:48:12;;;;;;;5.63;2.60;;;8.80;94.90;;;;;;4885797;29;20068;-85
2022/01/24 12:50:44;;;;;;;5.82;3.03;;;9.00;94.50;;;;;;4889889;29;20135;-76
2022/01/24 12:53:14;;;;;;;5.82;3.10;;;9.20;93.40;;;;;;4879980;29;20141;-87
2022/01/24 12:55:43;;;;;;;5.07;2.92;;;9.30;92.90;;;;;;4881415;29;20057;-78
2022/01/24 12:58:11;;;;;;;5.47;2.92;;;9.50;92.30;;;;;;4881055;29;20049;-80
2022/01/24 13:00:45;;;;;;;5.13;2.72;;;9.70;91.60;;;;;;4881103;29;20135;-80
2022/01/24 13:03:15;;;;;;;4.78;2.78;;;10.00;90.90;;;;;;4880848;29;20074;-78
2022/01/24 13:05:42;;;;;;;6.90;3.20;;;10.20;88.90;;;;;;4879606;29;20057;-76
2022/01/24 13:08:15;;;;;;;5.80;3.10;;;10.40;86.00;;;;;;4880468;29;20055;-81
2022/01/24 13:10:44;;;;;;;5.22;2.88;;;10.60;85.20;;;;;;4880748;29;20136;-78
2022/01/24 13:13:14;;;;;;;6.38;3.08;;;10.80;85.10;;;;;;4880512;29;20466;-79
2022/01/24 13:21:26;;;;;;;;;;;11.40;78.40;;;;;;4860248;29;20496;-81
2022/01/24 13:23:57;;;;;;;5.68;2.83;;;11.70;78.90;;;;;;4870776;29;19946;-79
2022/01/24 13:26:25;;;;;;;5.55;2.70;;;12.10;79.00;;;;;;4880271;29;20110;-80
2022/01/24 13:29:02;;;;;;;4.70;2.67;;;12.90;75.30;;;;;;4880109;29;20049;-79
2022/01/24 13:31:29;;;;;;;4.28;2.47;;;14.20;69.70;;;;;;4879893;29;20140;-78
2022/01/24 13:33:57;;;;;;;4.20;2.45;;;16.00;64.80;;;;;;4879956;29;20079;-78
2022/01/24 13:36:25;;;;;;;4.28;2.53;;;17.90;58.70;;;;;;4896509;29;20049;-83
2022/01/24 13:38:53;;;;;;;4.40;2.20;;;20.00;53.70;;;;;;4898666;29;20248;-80
2022/01/24 13:41:23;;;;;;;4.20;2.20;;;21.40;48.30;;;;;;4898774;29;20044;-79
2022/01/24 13:43:58;;;;;;;4.00;2.20;;;22.60;44.70;;;;;;4898414;29;20076;-78
2022/01/24 13:46:27;;;;;;;3.45;2.00;;;23.60;42.40;;;;;;4898634;29;20045;-79
2022/01/24 13:49:01;;;;;;;4.40;2.38;;;24.30;40.50;;;;;;4898770;29;20410;-79
2022/01/24 13:51:34;;;;;;;5.40;2.00;;;25.20;40.90;;;;;;4898742;29;20053;-77
2022/01/24 13:54:03;;;;;;;4.85;2.00;;;;;;;;;;4898304;29;20048;-79
2022/01/24 13:56:33;;;;;;;3.88;2.00;;;27.20;70.50;;;;;;4898335;29;20165;-79
2022/01/24 13:59:18;;;;;;;3.58;2.00;;;28.30;35.30;;;;;;4897925;29;20055;-79
2022/01/24 14:02:00;;;;;;;3.90;1.90;;;29.40;34.10;;;;;;4898475;29;20491;-78
2022/01/24 14:04:35;;;;;;;3.60;1.80;;;30.40;33.10;;;;;;4898330;29;20052;-79
2022/01/24 14:07:06;;;;;;;5.28;2.22;;;31.00;32.30;;;;;;4898851;29;20052;-78
2022/01/24 14:09:39;;;;;;;4.00;2.00;;;31.80;31.60;;;;;;4898456;29;20143;-77
2022/01/24 14:12:10;;;;;;;4.15;2.20;;;32.30;31.10;;;;;;4887862;29;20575;-76
2022/01/24 14:14:43;;;;;;;4.68;2.00;;;32.60;30.40;;;;;;4879109;29;20514;-76
2022/01/24 14:20:04;;;;;;;4.72;2.03;;;33.50;29.70;;;;;;4864644;29;20053;-75
2022/01/24 14:22:41;;;;;;;3.50;1.90;;;34.00;29.40;;;;;;4879483;29;20154;-79
2022/01/24 14:25:17;;;;;;;4.30;1.70;;;34.60;29.10;;;;;;4878765;29;20075;-78
2022/01/24 14:27:46;;;;;;;5.30;2.20;;;;;;;;;;4879430;29;20053;-76
2022/01/24 14:30:20;;;;;;;4.07;1.83;;;35.60;28.10;;;;;;4879376;29;20056;-76
2022/01/24 14:33:07;;;;;;;3.95;2.30;;;36.00;28.80;;;;;;4879278;29;20064;-75
2022/01/24 14:35:38;;;;;;;4.65;2.30;;;36.40;28.00;;;;;;4879322;29;20053;-76
2022/01/24 14:38:07;;;;;;;4.30;2.10;;;36.50;27.90;;;;;;4879008;29;20049;-78
2022/01/24 14:40:47;;;;;;;5.20;2.17;;;36.40;27.70;;;;;;4879294;29;20459;-78
2022/01/24 14:46:09;;;;;;;3.72;2.50;;;35.80;27.70;;;;;;4878980;29;20081;-77
2022/01/24 14:48:48;;;;;;;4.15;2.30;;;35.50;27.90;;;;;;4879373;29;20049;-76
2022/01/24 14:51:18;;;;;;;4.68;2.28;;;35.40;28.00;;;;;;4880896;29;20059;-76
2022/01/24 14:53:45;;;;;;;3.95;2.33;;;;;;;;;;4879106;29;20507;-77
2022/01/24 14:56:16;;;;;;;6.43;3.17;;;;;;;;;;4879160;29;20491;-76
2022/01/24 14:58:43;;;;;;;4.75;2.60;;;;;;;;;;4878822;29;20477;-75
2022/01/24 15:01:13;;;;;;;5.38;2.78;;;;;;;;;;4879111;29;20053;-77
2022/01/24 15:03:41;;;;;;;4.47;2.50;;;;;;;;;;4878440;29;20149;-76
2022/01/24 15:06:09;;;;;;;5.07;2.90;;;;;;;;;;4879170;29;20136;-74
2022/01/24 15:08:37;;;;;;;6.15;2.85;;;;;;;;;;4878777;29;20053;-76
2022/01/24 15:11:04;;;;;;;5.38;2.80;;;;;;;;;;4880468;29;20071;-77
2022/01/24 15:13:39;;;;;;;4.00;2.45;;;;;;;;;;4897623;29;20140;-76
2022/01/24 15:16:16;;;;;;;6.07;3.13;;;;;;;;;;4897068;29;20108;-76
2022/01/24 15:24:38;;;;;;;5.15;2.60;;;30.10;29.60;;;;;;4897903;29;20071;-77
2022/01/24 15:27:06;;;;;;;5.10;3.10;;;29.50;29.80;;;;;;4898144;29;20445;-75
2022/01/24 15:29:34;;;;;;;6.07;3.00;;;28.90;30.00;;;;;;4897207;29;20517;-73
2022/01/24 15:32:03;;;;;;;5.03;2.90;;;28.30;30.30;;;;;;4897430;29;20135;-76
2022/01/24 15:34:33;;;;;;;6.00;3.00;;;27.80;30.70;;;;;;4897656;29;20368;-75
2022/01/24 15:37:02;;;;;;;5.63;3.00;;;26.90;30.60;;;;;;4897546;29;20045;-75
2022/01/24 15:39:30;;;;;;;5.95;3.05;;;26.60;31.50;;;;;;4897504;29;20521;-75
2022/01/24 15:42:00;;;;;;;6.25;3.22;;;26.00;32.00;;;;;;4896949;29;20095;-75
2022/01/24 15:47:33;;;;;;;6.47;3.05;;;;;;;;;;4897585;29;20075;-74
2022/01/24 15:50:05;;;;;;;6.47;2.80;;;;;;;;;;4897599;29;20084;-74
2022/01/24 15:52:32;;;;;;;5.32;2.90;;;22.50;35.00;;;;;;4897520;29;20130;-75
2022/01/24 15:55:05;;;;;;;6.15;3.20;;;22.00;36.00;;;;;;4896590;29;20117;-73
2022/01/24 15:57:42;;;;;;;6.82;3.50;;;20.90;37.00;;;;;;4873538;29;20049;-78
2022/01/24 16:00:15;;;;;;;7.65;3.42;;;19.60;38.40;;;;;;4880060;29;20061;-74
2022/01/24 16:02:45;;;;;;;6.60;3.42;;;18.30;40.00;;;;;;4879287;29;20052;-75
2022/01/24 16:05:16;;;;;;;6.50;3.33;;;17.20;41.70;;;;;;4879911;29;20132;-77
2022/01/24 16:07:43;;;;;;;6.00;3.13;;;16.30;43.40;;;;;;4875846;29;20144;-78
2022/01/24 16:10:13;;;;;;;7.65;3.80;;;15.40;44.80;;;;;;4881139;29;20128;-75
2022/01/24 16:12:43;;;;;;;8.15;3.30;;;14.70;46.30;;;;;;4880634;29;20049;-78
2022/01/24 16:15:12;;;;;;;7.30;3.33;;;14.00;47.70;;;;;;4870359;29;20416;-76
2022/01/24 16:17:40;;;;;;;7.70;3.17;;;13.40;49.00;;;;;;4874851;29;20054;-77
2022/01/24 16:20:21;;;;;;;5.80;3.20;;;12.80;50.20;;;;;;4877559;29;20148;-77
2022/01/24 16:23:04;;;;;;;6.13;3.03;;;12.40;51.30;;;;;;4880053;29;20045;-79
2022/01/24 16:25:37;;;;;;;6.47;3.50;;;11.90;52.50;;;;;;4870683;29;20048;-77
2022/01/24 16:28:10;;;;;;;7.30;3.40;;;11.50;53.80;;;;;;4875439;29;20045;-78
2022/01/24 16:30:40;;;;;;;6.97;3.20;;;11.10;54.80;;;;;;4880254;29;20456;-76
2022/01/24 16:33:08;;;;;;;6.88;3.67;;;10.80;55.70;;;;;;4879645;29;20133;-77
2022/01/24 16:35:37;;;;;;;6.50;3.88;;;10.50;56.70;;;;;;4880687;29;20049;-75
2022/01/24 16:38:09;;;;;;;7.65;3.92;;;10.20;57.50;;;;;;4880325;29;20052;-76
2022/01/24 16:40:42;;;;;;;8.02;4.40;;;10.00;58.40;;;;;;4873766;29;20051;-77
2022/01/24 16:43:24;;;;;;;12.98;5.30;;;9.70;59.10;;;;;;4879814;29;20041;-74
2022/01/24 16:48:39;;;;;;;9.02;5.60;;;9.20;60.90;;;;;;4879925;29;20059;-74
2022/01/24 16:51:08;;;;;;;10.23;6.20;;;9.00;61.70;;;;;;4879594;29;20129;-76
2022/01/24 16:53:40;;;;;;;12.63;6.20;;;8.80;62.60;;;;;;4879549;29;20128;-74
2022/01/24 16:56:08;;;;;;;9.73;5.40;;;8.60;63.30;;;;;;4879577;29;20045;-75
2022/01/24 16:58:36;;;;;;;9.93;6.13;;;8.50;64.00;;;;;;4879511;29;20073;-74
2022/01/24 17:01:06;;;;;;;11.13;6.47;;;8.40;65.00;;;;;;4879492;29;20132;-73
2022/01/24 17:03:34;;;;;;;13.05;6.47;;;8.20;65.60;;;;;;4873158;29;20060;-74
2022/01/24 17:06:02;;;;;;;11.13;6.80;;;8.10;66.60;;;;;;4879763;29;20506;-75
2022/01/24 17:08:29;;;;;;;10.38;6.50;;;8.00;67.80;;;;;;4878710;29;20045;-74
2022/01/24 17:10:59;;;;;;;11.75;7.30;;;8.20;73.80;;;;;;4879095;29;20045;-79
2022/01/24 17:13:29;;;;;;;11.35;7.15;;;7.60;71.80;;;;;;4876612;29;20487;-78
2022/01/24 17:15:59;;;;;;;12.45;7.63;;;7.80;80.70;;;;;;4879362;29;20053;-76
2022/01/24 17:18:27;;;;;;;12.48;7.47;;;8.40;89.10;;;;;;4879449;29;20049;-76
2022/01/24 17:20:55;;;;;;;13.70;8.38;;;7.50;90.60;;;;;;4878748;29;20132;-77
2022/01/24 17:23:22;;;;;;;14.88;8.93;;;7.50;88.40;;;;;;4878646;29;20116;-77
2022/01/24 17:25:49;;;;;;;15.23;8.45;;;6.70;90.30;;;;;;4879529;29;20567;-76
2022/01/24 17:28:18;;;;;;;15.10;8.65;;;7.40;91.00;;;;;;4873399;29;20053;-79
2022/01/24 17:30:46;;;;;;;14.13;7.88;;;7.30;91.60;;;;;;4879708;29;20049;-76
2022/01/24 17:33:15;;;;;;;13.90;7.95;;;7.30;92.90;;;;;;4878178;29;20554;-80
2022/01/24 17:35:42;;;;;;;15.43;8.15;;;7.30;94.00;;;;;;4877909;29;20055;-79
2022/01/24 17:38:10;;;;;;;14.90;8.15;;;7.20;95.00;;;;;;4876748;29;20053;-76
2022/01/24 17:40:38;;;;;;;13.20;7.85;;;7.10;95.10;;;;;;4879505;29;20059;-75
2022/01/24 17:43:06;;;;;;;13.15;7.57;;;7.10;95.60;;;;;;4878764;29;20053;-75
2022/01/24 17:45:34;;;;;;;13.48;8.13;;;7.10;95.80;;;;;;4872415;29;20055;-80
2022/01/24 17:48:01;;;;;;;13.57;8.40;;;7.00;96.50;;;;;;4879561;29;20479;-79
2022/01/24 17:50:29;;;;;;;13.25;7.72;;;7.00;98.10;;;;;;4877371;29;20073;-78
2022/01/24 17:52:56;;;;;;;15.27;8.65;;;7.00;98.70;;;;;;4879062;29;20045;-77
2022/01/24 17:55:26;;;;;;;13.15;7.75;;;6.80;99.90;;;;;;4878647;29;20088;-79
2022/01/24 17:57:53;;;;;;;14.23;7.25;;;6.90;99.90;;;;;;4878783;29;20052;-76
2022/01/24 18:00:23;;;;;;;12.18;7.95;;;6.70;95.10;;;;;;4878545;29;20049;-75
2022/01/24 18:02:52;;;;;;;13.75;7.47;;;6.70;99.30;;;;;;4879044;29;20132;-77
2022/01/24 18:05:19;;;;;;;13.13;7.88;;;6.60;93.20;;;;;;4878519;29;20140;-78
2022/01/24 18:07:49;;;;;;;13.02;7.45;;;6.50;93.30;;;;;;4878676;29;20049;-74
2022/01/24 18:10:19;;;;;;;11.57;7.32;;;6.50;93.50;;;;;;4878291;29;20045;-75
2022/01/24 18:12:50;;;;;;;13.02;7.97;;;6.50;93.60;;;;;;4878660;29;20056;-75
2022/01/24 18:15:18;;;;;;;12.05;6.68;;;6.40;93.80;;;;;;4877536;29;20088;-76
2022/01/24 18:17:45;;;;;;;11.07;6.65;;;6.30;93.90;;;;;;4878833;29;20120;-78
2022/01/24 18:20:14;;;;;;;12.35;7.05;;;6.20;93.90;;;;;;4863494;29;20509;-78
2022/01/24 18:22:41;;;;;;;11.13;6.90;;;6.10;93.90;;;;;;4870061;29;20060;-79
2022/01/24 18:25:09;;;;;;;10.85;6.35;;;5.90;94.20;;;;;;4893437;29;20116;-80
2022/01/24 18:27:36;;;;;;;11.10;6.32;;;5.80;94.60;;;;;;4890321;29;20132;-77
2022/01/24 18:30:07;;;;;;;10.75;6.80;;;5.70;94.90;;;;;;4872016;29;20045;-78
2022/01/24 18:32:35;;;;;;;13.13;7.10;;;5.60;95.20;;;;;;4870527;29;20059;-79
2022/01/24 18:35:03;;;;;;;20.77;11.85;;;5.50;95.40;;;;;;4872025;29;20553;-79
2022/01/24 18:37:31;;;;;;;19.67;11.40;;;5.40;95.80;;;;;;4875189;29;20185;-80
2022/01/24 18:39:58;;;;;;;16.35;9.63;;;5.40;96.00;;;;;;4876397;29;20049;-81
2022/01/24 18:42:30;;;;;;;20.15;10.95;;;5.30;96.20;;;;;;4872090;29;20144;-80
2022/01/24 18:44:58;;;;;;;16.90;9.55;;;5.30;96.50;;;;;;4876447;29;20045;-77
2022/01/24 18:47:25;;;;;;;15.07;8.13;;;5.30;96.30;;;;;;4877959;29;20060;-77
2022/01/24 18:49:52;;;;;;;12.57;7.28;;;5.30;96.40;;;;;;4877454;29;20478;-76
2022/01/24 18:52:20;;;;;;;12.48;7.38;;;5.20;96.60;;;;;;4878325;29;20081;-77
2022/01/24 18:54:49;;;;;;;10.65;6.35;;;5.20;96.70;;;;;;4884302;29;20088;-77
2022/01/24 18:57:16;;;;;;;11.38;6.60;;;5.20;97.00;;;;;;4897282;29;20136;-78
2022/01/24 18:59:44;;;;;;;12.45;6.93;;;5.10;96.90;;;;;;4879049;29;20091;-88
2022/01/24 19:02:11;;;;;;;13.68;7.82;;;5.10;97.10;;;;;;4878799;29;20053;-77
2022/01/24 19:04:39;;;;;;;12.27;7.45;;;5.10;97.50;;;;;;4892216;29;20059;-79
2022/01/24 19:07:06;;;;;;;14.02;7.50;;;5.10;97.60;;;;;;4878148;29;20471;-77
2022/01/24 19:09:35;;;;;;;15.23;8.23;;;5.10;97.60;;;;;;4878804;29;20051;-79